sensor_id;sensor_type;location;lat;lon;timestamp;temperature;humidity
13052;DHT22;6592;47.484;9.726;2022-09-03T00:01:57;17.60;99.90
13052;DHT22;6592;47.484;9.726;2022-09-03T00:04:30;17.50;99.90
13052;DHT22;6592;47.484;9.726;2022-09-03T00:07:04;17.50;99.90
13052;DHT22;6592;47.484;9.726;2022-09-03T00:09:38;17.40;99.90
13052;DHT22;6592;47.484;9.726;2022-09-03T00:12:11;17.40;99.90
13052;DHT22;6592;47.484;9.726;2022-09-03T00:14:47;17.40;99.90
13052;DHT22;6592;47.484;9.726;2022-09-03T00:17:20;17.50;99.90
13052;DHT22;6592;47.484;9.726;2022-09-03T00:19:54;17.60;99.90
13052;DHT22;6592;47.484;9.726;2022-09-03T00:22:26;17.60;99.90
13052;DHT22;6592;47.484;9.726;2022-09-03T00:24:56;17.60;99.90
13052;DHT22;6592;47.484;9.726;2022-09-03T00:27:27;17.50;99.90
13052;DHT22;6592;47.484;9.726;2022-09-03T00:30:00;17.50;99.90
13052;DHT22;6592;47.484;9.726;2022-09-03T00:32:39;17.40;99.90
13052;DHT22;6592;47.484;9.726;2022-09-03T00:35:13;17.30;99.90
13052;DHT22;6592;47.484;9.726;2022-09-03T00:37:44;17.30;99.90
13052;DHT22;6592;47.484;9.726;2022-09-03T00:40:21;17.50;99.90
13052;DHT22;6592;47.484;9.726;2022-09-03T00:42:59;17.20;99.90
13052;DHT22;6592;47.484;9.726;2022-09-03T00:45:36;17.10;99.90
13052;DHT22;6592;47.484;9.726;2022-09-03T00:48:12;17.10;99.90
13052;DHT22;6592;47.484;9.726;2022-09-03T00:50:54;17.10;99.90
13052;DHT22;6592;47.484;9.726;2022-09-03T00:53:31;17.10;99.90
13052;DHT22;6592;47.484;9.726;2022-09-03T00:56:07;17.10;99.90
13052;DHT22;6592;47.484;9.726;2022-09-03T00:59:02;17.20;99.90
13052;DHT22;6592;47.484;9.726;2022-09-03T01:01:36;17.20;99.90
13052;DHT22;6592;47.484;9.726;2022-09-03T01:04:21;17.20;99.90
13052;DHT22;6592;47.484;9.726;2022-09-03T01:06:59;17.20;99.90
13052;DHT22;6592;47.484;9.726;2022-09-03T01:09:42;17.20;99.90
13052;DHT22;6592;47.484;9.726;2022-09-03T01:12:19;17.20;99.90
13052;DHT22;6592;47.484;9.726;2022-09-03T01:14:59;17.20;99.90
13052;DHT22;6592;47.484;9.726;2022-09-03T01:17:39;17.20;99.90
13052;DHT22;6592;47.484;9.726;2022-09-03T01:20:34;17.20;99.90
13052;DHT22;6592;47.484;9.726;2022-09-03T01:23:42;17.20;99.90
13052;DHT22;6592;47.484;9.726;2022-09-03T01:26:38;17.20;99.90
13052;DHT22;6592;47.484;9.726;2022-09-03T01:29:14;17.10;99.90
13052;DHT22;6592;47.484;9.726;2022-09-03T01:31:55;17.10;99.90
13052;DHT22;6592;47.484;9.726;2022-09-03T01:34:33;17.10;99.90
13052;DHT22;6592;47.484;9.726;2022-09-03T01:37:13;17.10;99.90
13052;DHT22;6592;47.484;9.726;2022-09-03T01:39:50;17.10;99.90
13052;DHT22;6592;47.484;9.726;2022-09-03T01:42:27;17.10;99.90
13052;DHT22;6592;47.484;9.726;2022-09-03T01:45:18;17.10;99.90
13052;DHT22;6592;47.484;9.726;2022-09-03T01:48:00;17.10;99.90
13052;DHT22;6592;47.484;9.726;2022-09-03T01:50:40;17.20;99.90
13052;DHT22;6592;47.484;9.726;2022-09-03T01:53:21;17.20;99.90
13052;DHT22;6592;47.484;9.726;2022-09-03T01:56:07;17.20;99.90
13052;DHT22;6592;47.484;9.726;2022-09-03T01:58:41;17.30;99.90
13052;DHT22;6592;47.484;9.726;2022-09-03T02:01:17;17.30;99.90
13052;DHT22;6592;47.484;9.726;2022-09-03T02:03:48;17.40;99.90
13052;DHT22;6592;47.484;9.726;2022-09-03T02:06:18;17.50;99.90
13052;DHT22;6592;47.484;9.726;2022-09-03T02:08:46;17.60;99.90
13052;DHT22;6592;47.484;9.726;2022-09-03T02:11:15;17.60;99.90
13052;DHT22;6592;47.484;9.726;2022-09-03T02:13:48;17.70;99.90
13052;DHT22;6592;47.484;9.726;2022-09-03T02:16:20;17.80;99.90
13052;DHT22;6592;47.484;9.726;2022-09-03T02:18:51;17.90;99.90
13052;DHT22;6592;47.484;9.726;2022-09-03T02:21:23;17.90;99.90
13052;DHT22;6592;47.484;9.726;2022-09-03T02:23:52;17.90;99.90
13052;DHT22;6592;47.484;9.726;2022-09-03T02:26:22;17.90;99.90
13052;DHT22;6592;47.484;9.726;2022-09-03T02:28:52;17.90;99.90
13052;DHT22;6592;47.484;9.726;2022-09-03T02:31:23;17.90;99.90
13052;DHT22;6592;47.484;9.726;2022-09-03T02:33:51;17.90;99.90
13052;DHT22;6592;47.484;9.726;2022-09-03T02:36:24;17.90;99.90
13052;DHT22;6592;47.484;9.726;2022-09-03T02:38:53;17.80;99.90
13052;DHT22;6592;47.484;9.726;2022-09-03T02:41:22;17.80;99.90
13052;DHT22;6592;47.484;9.726;2022-09-03T02:43:57;17.70;99.90
13052;DHT22;6592;47.484;9.726;2022-09-03T02:46:32;17.70;99.90
13052;DHT22;6592;47.484;9.726;2022-09-03T02:49:01;17.70;99.90
13052;DHT22;6592;47.484;9.726;2022-09-03T02:51:33;17.70;99.90
13052;DHT22;6592;47.484;9.726;2022-09-03T02:54:03;17.70;99.90
13052;DHT22;6592;47.484;9.726;2022-09-03T02:56:31;17.70;99.90
13052;DHT22;6592;47.484;9.726;2022-09-03T02:59:01;17.70;99.90
13052;DHT22;6592;47.484;9.726;2022-09-03T03:01:31;17.60;99.90
13052;DHT22;6592;47.484;9.726;2022-09-03T03:03:59;17.60;99.90
13052;DHT22;6592;47.484;9.726;2022-09-03T03:06:27;17.50;99.90
13052;DHT22;6592;47.484;9.726;2022-09-03T03:08:56;17.50;99.90
13052;DHT22;6592;47.484;9.726;2022-09-03T03:11:24;17.50;99.90
13052;DHT22;6592;47.484;9.726;2022-09-03T03:13:54;17.50;99.90
13052;DHT22;6592;47.484;9.726;2022-09-03T03:16:22;17.50;99.90
13052;DHT22;6592;47.484;9.726;2022-09-03T03:18:52;17.50;99.90
13052;DHT22;6592;47.484;9.726;2022-09-03T03:21:20;17.50;99.90
13052;DHT22;6592;47.484;9.726;2022-09-03T03:23:49;17.40;99.90
13052;DHT22;6592;47.484;9.726;2022-09-03T03:26:18;17.40;99.90
13052;DHT22;6592;47.484;9.726;2022-09-03T03:28:48;17.40;99.90
13052;DHT22;6592;47.484;9.726;2022-09-03T03:31:18;17.40;99.90
13052;DHT22;6592;47.484;9.726;2022-09-03T03:33:51;17.30;99.90
13052;DHT22;6592;47.484;9.726;2022-09-03T03:36:21;17.30;99.90
13052;DHT22;6592;47.484;9.726;2022-09-03T03:38:52;17.30;99.90
13052;DHT22;6592;47.484;9.726;2022-09-03T03:41:23;17.30;99.90
13052;DHT22;6592;47.484;9.726;2022-09-03T03:43:52;17.30;99.90
13052;DHT22;6592;47.484;9.726;2022-09-03T03:46:21;17.30;99.90
13052;DHT22;6592;47.484;9.726;2022-09-03T03:48:51;17.30;99.90
13052;DHT22;6592;47.484;9.726;2022-09-03T03:51:20;17.30;99.90
13052;DHT22;6592;47.484;9.726;2022-09-03T03:53:48;17.30;99.90
13052;DHT22;6592;47.484;9.726;2022-09-03T03:56:20;17.30;99.90
13052;DHT22;6592;47.484;9.726;2022-09-03T03:58:49;17.30;99.90
13052;DHT22;6592;47.484;9.726;2022-09-03T04:01:19;17.30;99.90
13052;DHT22;6592;47.484;9.726;2022-09-03T04:03:48;17.30;99.90
13052;DHT22;6592;47.484;9.726;2022-09-03T04:06:19;17.10;99.90
13052;DHT22;6592;47.484;9.726;2022-09-03T04:08:48;17.00;99.90
13052;DHT22;6592;47.484;9.726;2022-09-03T04:11:18;16.90;99.90
13052;DHT22;6592;47.484;9.726;2022-09-03T04:13:48;16.80;99.90
13052;DHT22;6592;47.484;9.726;2022-09-03T04:16:18;16.90;99.90
13052;DHT22;6592;47.484;9.726;2022-09-03T04:18:47;16.90;99.90
13052;DHT22;6592;47.484;9.726;2022-09-03T04:21:19;16.90;99.90
13052;DHT22;6592;47.484;9.726;2022-09-03T04:23:48;16.90;99.90
13052;DHT22;6592;47.484;9.726;2022-09-03T04:26:18;16.90;99.90
13052;DHT22;6592;47.484;9.726;2022-09-03T04:28:47;16.90;99.90
13052;DHT22;6592;47.484;9.726;2022-09-03T04:31:17;16.90;99.90
13052;DHT22;6592;47.484;9.726;2022-09-03T04:33:45;16.90;99.90
13052;DHT22;6592;47.484;9.726;2022-09-03T04:36:15;16.90;99.90
13052;DHT22;6592;47.484;9.726;2022-09-03T04:38:46;17.10;99.90
13052;DHT22;6592;47.484;9.726;2022-09-03T04:41:16;17.10;99.90
13052;DHT22;6592;47.484;9.726;2022-09-03T04:43:45;17.10;99.90
13052;DHT22;6592;47.484;9.726;2022-09-03T04:46:18;17.10;99.90
13052;DHT22;6592;47.484;9.726;2022-09-03T04:48:48;17.10;99.90
13052;DHT22;6592;47.484;9.726;2022-09-03T04:51:19;17.10;99.90
13052;DHT22;6592;47.484;9.726;2022-09-03T04:53:53;17.10;99.90
13052;DHT22;6592;47.484;9.726;2022-09-03T04:56:24;17.10;99.90
13052;DHT22;6592;47.484;9.726;2022-09-03T04:58:55;17.10;99.90
13052;DHT22;6592;47.484;9.726;2022-09-03T05:01:25;17.10;99.90
13052;DHT22;6592;47.484;9.726;2022-09-03T05:03:54;17.10;99.90
13052;DHT22;6592;47.484;9.726;2022-09-03T05:06:24;17.10;99.90
13052;DHT22;6592;47.484;9.726;2022-09-03T05:08:55;17.10;99.90
13052;DHT22;6592;47.484;9.726;2022-09-03T05:11:24;17.10;99.90
13052;DHT22;6592;47.484;9.726;2022-09-03T05:13:54;17.10;99.90
13052;DHT22;6592;47.484;9.726;2022-09-03T05:16:23;17.10;99.90
13052;DHT22;6592;47.484;9.726;2022-09-03T05:18:52;17.10;99.90
13052;DHT22;6592;47.484;9.726;2022-09-03T05:21:20;17.10;99.90
13052;DHT22;6592;47.484;9.726;2022-09-03T05:23:50;17.20;99.90
13052;DHT22;6592;47.484;9.726;2022-09-03T05:26:22;17.10;99.90
13052;DHT22;6592;47.484;9.726;2022-09-03T05:28:52;17.10;99.90
13052;DHT22;6592;47.484;9.726;2022-09-03T05:31:21;17.10;99.90
13052;DHT22;6592;47.484;9.726;2022-09-03T05:33:53;17.10;99.90
13052;DHT22;6592;47.484;9.726;2022-09-03T05:36:25;17.10;99.90
13052;DHT22;6592;47.484;9.726;2022-09-03T05:38:54;17.10;99.90
13052;DHT22;6592;47.484;9.726;2022-09-03T05:41:27;17.10;99.90
13052;DHT22;6592;47.484;9.726;2022-09-03T05:43:56;17.10;99.90
13052;DHT22;6592;47.484;9.726;2022-09-03T05:46:26;17.10;99.90
13052;DHT22;6592;47.484;9.726;2022-09-03T05:48:58;17.20;99.90
13052;DHT22;6592;47.484;9.726;2022-09-03T05:51:28;17.30;99.90
13052;DHT22;6592;47.484;9.726;2022-09-03T05:53:56;17.30;99.90
13052;DHT22;6592;47.484;9.726;2022-09-03T05:56:28;17.30;99.90
13052;DHT22;6592;47.484;9.726;2022-09-03T05:58:58;17.40;99.90
13052;DHT22;6592;47.484;9.726;2022-09-03T06:01:29;17.50;99.90
13052;DHT22;6592;47.484;9.726;2022-09-03T06:03:59;17.50;99.90
13052;DHT22;6592;47.484;9.726;2022-09-03T06:06:29;17.50;99.90
13052;DHT22;6592;47.484;9.726;2022-09-03T06:08:59;17.60;99.90
13052;DHT22;6592;47.484;9.726;2022-09-03T06:11:31;17.70;99.90
13052;DHT22;6592;47.484;9.726;2022-09-03T06:14:01;17.80;99.90
13052;DHT22;6592;47.484;9.726;2022-09-03T06:16:32;18.00;99.90
13052;DHT22;6592;47.484;9.726;2022-09-03T06:19:01;18.10;99.90
13052;DHT22;6592;47.484;9.726;2022-09-03T06:21:29;18.20;99.90
13052;DHT22;6592;47.484;9.726;2022-09-03T06:23:58;18.10;99.90
13052;DHT22;6592;47.484;9.726;2022-09-03T06:26:28;18.00;99.90
13052;DHT22;6592;47.484;9.726;2022-09-03T06:28:57;17.90;99.90
13052;DHT22;6592;47.484;9.726;2022-09-03T06:31:26;17.90;99.90
13052;DHT22;6592;47.484;9.726;2022-09-03T06:33:54;18.00;99.90
13052;DHT22;6592;47.484;9.726;2022-09-03T06:36:29;18.20;99.90
13052;DHT22;6592;47.484;9.726;2022-09-03T06:38:58;18.30;99.90
13052;DHT22;6592;47.484;9.726;2022-09-03T06:41:30;18.40;99.90
13052;DHT22;6592;47.484;9.726;2022-09-03T06:44:03;18.50;99.90
13052;DHT22;6592;47.484;9.726;2022-09-03T06:46:32;18.70;99.90
13052;DHT22;6592;47.484;9.726;2022-09-03T06:49:01;19.10;99.90
13052;DHT22;6592;47.484;9.726;2022-09-03T06:51:31;19.60;99.90
13052;DHT22;6592;47.484;9.726;2022-09-03T06:54:02;19.60;99.90
13052;DHT22;6592;47.484;9.726;2022-09-03T06:56:33;19.40;99.90
13052;DHT22;6592;47.484;9.726;2022-09-03T06:59:07;19.20;99.90
13052;DHT22;6592;47.484;9.726;2022-09-03T07:01:36;19.10;99.90
13052;DHT22;6592;47.484;9.726;2022-09-03T07:04:10;19.10;99.90
13052;DHT22;6592;47.484;9.726;2022-09-03T07:06:39;19.20;99.90
13052;DHT22;6592;47.484;9.726;2022-09-03T07:09:10;19.60;99.90
13052;DHT22;6592;47.484;9.726;2022-09-03T07:11:40;20.90;99.90
13052;DHT22;6592;47.484;9.726;2022-09-03T07:14:14;22.00;99.90
13052;DHT22;6592;47.484;9.726;2022-09-03T07:16:43;21.80;99.90
13052;DHT22;6592;47.484;9.726;2022-09-03T07:19:12;21.70;99.90
13052;DHT22;6592;47.484;9.726;2022-09-03T07:21:41;21.50;99.90
13052;DHT22;6592;47.484;9.726;2022-09-03T07:24:17;21.00;99.90
13052;DHT22;6592;47.484;9.726;2022-09-03T07:26:47;20.80;99.90
13052;DHT22;6592;47.484;9.726;2022-09-03T07:29:16;20.70;99.90
13052;DHT22;6592;47.484;9.726;2022-09-03T07:31:48;20.80;99.90
13052;DHT22;6592;47.484;9.726;2022-09-03T07:34:19;20.90;99.90
13052;DHT22;6592;47.484;9.726;2022-09-03T07:36:51;20.80;99.90
13052;DHT22;6592;47.484;9.726;2022-09-03T07:39:20;20.80;99.90
13052;DHT22;6592;47.484;9.726;2022-09-03T07:41:50;20.80;99.90
13052;DHT22;6592;47.484;9.726;2022-09-03T07:44:19;20.70;99.90
13052;DHT22;6592;47.484;9.726;2022-09-03T07:46:48;20.90;99.90
13052;DHT22;6592;47.484;9.726;2022-09-03T07:49:18;20.80;99.90
13052;DHT22;6592;47.484;9.726;2022-09-03T07:51:48;20.70;99.90
13052;DHT22;6592;47.484;9.726;2022-09-03T07:54:20;20.60;99.90
13052;DHT22;6592;47.484;9.726;2022-09-03T07:56:52;20.60;99.90
13052;DHT22;6592;47.484;9.726;2022-09-03T07:59:22;20.70;99.90
13052;DHT22;6592;47.484;9.726;2022-09-03T08:01:50;20.90;99.90
13052;DHT22;6592;47.484;9.726;2022-09-03T08:04:19;21.00;99.90
13052;DHT22;6592;47.484;9.726;2022-09-03T08:06:48;21.00;99.90
13052;DHT22;6592;47.484;9.726;2022-09-03T08:09:21;20.90;99.90
13052;DHT22;6592;47.484;9.726;2022-09-03T08:11:51;21.20;99.90
13052;DHT22;6592;47.484;9.726;2022-09-03T08:14:19;21.50;99.90
13052;DHT22;6592;47.484;9.726;2022-09-03T08:16:48;22.10;99.90
13052;DHT22;6592;47.484;9.726;2022-09-03T08:19:17;23.00;99.90
13052;DHT22;6592;47.484;9.726;2022-09-03T08:21:46;23.90;99.90
13052;DHT22;6592;47.484;9.726;2022-09-03T08:24:15;25.40;99.90
13052;DHT22;6592;47.484;9.726;2022-09-03T08:26:44;26.30;99.90
13052;DHT22;6592;47.484;9.726;2022-09-03T08:29:19;27.00;99.90
13052;DHT22;6592;47.484;9.726;2022-09-03T08:31:48;27.90;99.90
13052;DHT22;6592;47.484;9.726;2022-09-03T08:34:16;28.00;99.90
13052;DHT22;6592;47.484;9.726;2022-09-03T08:36:45;28.50;99.90
13052;DHT22;6592;47.484;9.726;2022-09-03T08:39:15;29.50;99.90
13052;DHT22;6592;47.484;9.726;2022-09-03T08:42:06;29.10;99.90
13052;DHT22;6592;47.484;9.726;2022-09-03T08:44:43;30.10;99.90
13052;DHT22;6592;47.484;9.726;2022-09-03T08:47:17;30.70;99.90
13052;DHT22;6592;47.484;9.726;2022-09-03T08:49:52;30.50;99.90
13052;DHT22;6592;47.484;9.726;2022-09-03T08:52:29;31.30;98.40
13052;DHT22;6592;47.484;9.726;2022-09-03T08:55:15;31.50;98.10
13052;DHT22;6592;47.484;9.726;2022-09-03T08:57:48;31.80;94.00
13052;DHT22;6592;47.484;9.726;2022-09-03T09:00:19;31.30;94.60
13052;DHT22;6592;47.484;9.726;2022-09-03T09:03:06;32.00;93.60
13052;DHT22;6592;47.484;9.726;2022-09-03T09:05:44;32.80;93.10
13052;DHT22;6592;47.484;9.726;2022-09-03T09:08:27;33.70;91.40
13052;DHT22;6592;47.484;9.726;2022-09-03T09:11:05;34.10;83.50
13052;DHT22;6592;47.484;9.726;2022-09-03T09:13:42;32.70;85.30
13052;DHT22;6592;47.484;9.726;2022-09-03T09:16:19;32.00;87.10
13052;DHT22;6592;47.484;9.726;2022-09-03T09:18:59;32.40;86.40
13052;DHT22;6592;47.484;9.726;2022-09-03T09:21:30;31.80;87.60
13052;DHT22;6592;47.484;9.726;2022-09-03T09:24:02;32.50;90.00
13052;DHT22;6592;47.484;9.726;2022-09-03T09:26:32;32.40;86.00
13052;DHT22;6592;47.484;9.726;2022-09-03T09:29:04;32.00;84.00
13052;DHT22;6592;47.484;9.726;2022-09-03T09:31:39;31.40;84.10
13052;DHT22;6592;47.484;9.726;2022-09-03T09:34:11;30.10;85.40
13052;DHT22;6592;47.484;9.726;2022-09-03T09:36:44;30.10;88.70
13052;DHT22;6592;47.484;9.726;2022-09-03T09:39:14;30.30;86.60
13052;DHT22;6592;47.484;9.726;2022-09-03T09:41:53;30.30;86.70
13052;DHT22;6592;47.484;9.726;2022-09-03T09:44:24;29.70;90.80
13052;DHT22;6592;47.484;9.726;2022-09-03T09:47:04;30.30;87.40
13052;DHT22;6592;47.484;9.726;2022-09-03T09:49:35;31.00;87.40
13052;DHT22;6592;47.484;9.726;2022-09-03T09:52:08;31.20;85.40
13052;DHT22;6592;47.484;9.726;2022-09-03T09:54:38;32.10;81.40
13052;DHT22;6592;47.484;9.726;2022-09-03T09:57:13;33.20;80.40
13052;DHT22;6592;47.484;9.726;2022-09-03T09:59:44;33.50;77.60
13052;DHT22;6592;47.484;9.726;2022-09-03T10:02:24;32.10;79.70
13052;DHT22;6592;47.484;9.726;2022-09-03T10:04:54;31.80;82.20
13052;DHT22;6592;47.484;9.726;2022-09-03T10:07:26;31.30;81.30
13052;DHT22;6592;47.484;9.726;2022-09-03T10:10:01;30.60;80.70
13052;DHT22;6592;47.484;9.726;2022-09-03T10:12:31;30.10;83.20
13052;DHT22;6592;47.484;9.726;2022-09-03T10:15:11;29.90;84.90
13052;DHT22;6592;47.484;9.726;2022-09-03T10:17:55;29.90;83.20
13052;DHT22;6592;47.484;9.726;2022-09-03T10:20:31;30.00;84.80
13052;DHT22;6592;47.484;9.726;2022-09-03T10:23:10;30.40;85.50
13052;DHT22;6592;47.484;9.726;2022-09-03T10:25:50;31.00;84.90
13052;DHT22;6592;47.484;9.726;2022-09-03T10:28:21;31.90;85.40
13052;DHT22;6592;47.484;9.726;2022-09-03T10:30:53;32.70;82.20
13052;DHT22;6592;47.484;9.726;2022-09-03T10:33:30;33.70;83.70
13052;DHT22;6592;47.484;9.726;2022-09-03T10:36:11;35.30;79.40
13052;DHT22;6592;47.484;9.726;2022-09-03T10:38:41;36.50;74.10
13052;DHT22;6592;47.484;9.726;2022-09-03T10:41:18;36.70;69.00
13052;DHT22;6592;47.484;9.726;2022-09-03T10:44:09;36.50;65.20
13052;DHT22;6592;47.484;9.726;2022-09-03T10:46:47;35.70;66.70
13052;DHT22;6592;47.484;9.726;2022-09-03T10:49:30;36.00;68.00
13052;DHT22;6592;47.484;9.726;2022-09-03T10:52:09;36.00;64.80
13052;DHT22;6592;47.484;9.726;2022-09-03T10:54:51;35.70;67.40
13052;DHT22;6592;47.484;9.726;2022-09-03T10:57:31;35.10;63.70
13052;DHT22;6592;47.484;9.726;2022-09-03T11:00:04;34.70;66.20
13052;DHT22;6592;47.484;9.726;2022-09-03T11:05:55;34.10;69.90
13052;DHT22;6592;47.484;9.726;2022-09-03T11:08:29;34.40;67.70
13052;DHT22;6592;47.484;9.726;2022-09-03T11:11:15;34.60;69.20
13052;DHT22;6592;47.484;9.726;2022-09-03T11:13:50;35.00;68.80
13052;DHT22;6592;47.484;9.726;2022-09-03T11:16:22;34.60;69.60
13052;DHT22;6592;47.484;9.726;2022-09-03T11:18:54;34.30;72.00
13052;DHT22;6592;47.484;9.726;2022-09-03T11:21:29;33.60;71.80
13052;DHT22;6592;47.484;9.726;2022-09-03T11:24:08;32.90;72.40
13052;DHT22;6592;47.484;9.726;2022-09-03T11:26:42;31.80;73.50
13052;DHT22;6592;47.484;9.726;2022-09-03T11:29:15;30.60;77.30
13052;DHT22;6592;47.484;9.726;2022-09-03T11:31:54;29.20;81.90
13052;DHT22;6592;47.484;9.726;2022-09-03T11:34:32;28.20;86.10
13052;DHT22;6592;47.484;9.726;2022-09-03T11:37:19;27.20;91.20
13052;DHT22;6592;47.484;9.726;2022-09-03T11:39:56;26.20;94.20
13052;DHT22;6592;47.484;9.726;2022-09-03T11:42:28;25.20;97.00
13052;DHT22;6592;47.484;9.726;2022-09-03T11:45:19;24.60;98.90
13052;DHT22;6592;47.484;9.726;2022-09-03T11:47:49;24.00;99.90
13052;DHT22;6592;47.484;9.726;2022-09-03T11:50:21;23.50;99.90
13052;DHT22;6592;47.484;9.726;2022-09-03T11:52:52;23.20;99.90
13052;DHT22;6592;47.484;9.726;2022-09-03T11:55:26;22.90;99.90
13052;DHT22;6592;47.484;9.726;2022-09-03T11:58:18;22.50;99.90
13052;DHT22;6592;47.484;9.726;2022-09-03T12:00:51;22.40;99.90
13052;DHT22;6592;47.484;9.726;2022-09-03T12:03:35;22.20;99.90
13052;DHT22;6592;47.484;9.726;2022-09-03T12:06:37;21.90;99.90
13052;DHT22;6592;47.484;9.726;2022-09-03T12:12:32;21.40;99.90
13052;DHT22;6592;47.484;9.726;2022-09-03T12:15:09;21.20;99.90
13052;DHT22;6592;47.484;9.726;2022-09-03T12:17:48;21.00;99.90
13052;DHT22;6592;47.484;9.726;2022-09-03T12:20:38;20.90;99.90
13052;DHT22;6592;47.484;9.726;2022-09-03T12:23:08;20.50;99.90
13052;DHT22;6592;47.484;9.726;2022-09-03T12:25:44;20.20;99.90
13052;DHT22;6592;47.484;9.726;2022-09-03T12:28:17;20.00;99.90
13052;DHT22;6592;47.484;9.726;2022-09-03T12:30:47;19.80;99.90
13052;DHT22;6592;47.484;9.726;2022-09-03T12:33:20;19.70;99.90
13052;DHT22;6592;47.484;9.726;2022-09-03T12:35:55;19.50;99.90
13052;DHT22;6592;47.484;9.726;2022-09-03T12:38:26;19.30;99.90
13052;DHT22;6592;47.484;9.726;2022-09-03T12:40:56;19.00;99.90
13052;DHT22;6592;47.484;9.726;2022-09-03T12:43:50;18.60;99.90
13052;DHT22;6592;47.484;9.726;2022-09-03T12:46:22;18.40;99.90
13052;DHT22;6592;47.484;9.726;2022-09-03T12:49:01;18.30;99.90
13052;DHT22;6592;47.484;9.726;2022-09-03T12:51:56;18.20;99.90
13052;DHT22;6592;47.484;9.726;2022-09-03T12:54:31;18.20;99.90
13052;DHT22;6592;47.484;9.726;2022-09-03T12:57:02;18.20;99.90
13052;DHT22;6592;47.484;9.726;2022-09-03T12:59:34;18.30;99.90
13052;DHT22;6592;47.484;9.726;2022-09-03T13:02:12;18.60;99.90
13052;DHT22;6592;47.484;9.726;2022-09-03T13:04:42;18.80;99.90
13052;DHT22;6592;47.484;9.726;2022-09-03T13:07:18;19.10;99.90
13052;DHT22;6592;47.484;9.726;2022-09-03T13:09:47;19.50;99.90
13052;DHT22;6592;47.484;9.726;2022-09-03T13:12:23;19.80;99.90
13052;DHT22;6592;47.484;9.726;2022-09-03T13:15:05;20.00;99.90
13052;DHT22;6592;47.484;9.726;2022-09-03T13:20:39;20.60;99.90
13052;DHT22;6592;47.484;9.726;2022-09-03T13:26:17;23.10;99.90
13052;DHT22;6592;47.484;9.726;2022-09-03T13:29:05;23.80;99.90
13052;DHT22;6592;47.484;9.726;2022-09-03T13:31:43;24.10;99.90
13052;DHT22;6592;47.484;9.726;2022-09-03T13:34:19;23.90;99.90
13052;DHT22;6592;47.484;9.726;2022-09-03T13:36:53;23.40;99.90
13052;DHT22;6592;47.484;9.726;2022-09-03T13:39:27;23.00;99.90
13052;DHT22;6592;47.484;9.726;2022-09-03T13:42:04;22.70;99.90
13052;DHT22;6592;47.484;9.726;2022-09-03T13:44:41;22.80;99.90
13052;DHT22;6592;47.484;9.726;2022-09-03T13:47:18;23.00;99.90
13052;DHT22;6592;47.484;9.726;2022-09-03T13:49:53;23.30;99.90
13052;DHT22;6592;47.484;9.726;2022-09-03T13:52:45;23.20;99.90
13052;DHT22;6592;47.484;9.726;2022-09-03T13:55:20;23.20;99.90
13052;DHT22;6592;47.484;9.726;2022-09-03T13:57:54;23.10;99.90
13052;DHT22;6592;47.484;9.726;2022-09-03T14:00:33;22.80;99.90
13052;DHT22;6592;47.484;9.726;2022-09-03T14:03:09;22.70;99.90
13052;DHT22;6592;47.484;9.726;2022-09-03T14:06:01;22.30;99.90
13052;DHT22;6592;47.484;9.726;2022-09-03T14:08:39;22.30;99.90
13052;DHT22;6592;47.484;9.726;2022-09-03T14:11:27;22.70;99.90
13052;DHT22;6592;47.484;9.726;2022-09-03T14:14:06;22.70;99.90
13052;DHT22;6592;47.484;9.726;2022-09-03T14:16:45;22.70;99.90
13052;DHT22;6592;47.484;9.726;2022-09-03T14:19:21;22.80;99.90
13052;DHT22;6592;47.484;9.726;2022-09-03T14:21:57;23.40;99.90
13052;DHT22;6592;47.484;9.726;2022-09-03T14:24:30;24.00;99.90
13052;DHT22;6592;47.484;9.726;2022-09-03T14:27:02;24.60;99.90
13052;DHT22;6592;47.484;9.726;2022-09-03T14:29:33;25.20;99.90
13052;DHT22;6592;47.484;9.726;2022-09-03T14:32:25;25.50;99.90
13052;DHT22;6592;47.484;9.726;2022-09-03T14:35:22;25.70;99.90
13052;DHT22;6592;47.484;9.726;2022-09-03T14:38:27;25.80;99.90
13052;DHT22;6592;47.484;9.726;2022-09-03T14:41:04;25.80;99.90
13052;DHT22;6592;47.484;9.726;2022-09-03T14:43:57;25.20;99.90
13052;DHT22;6592;47.484;9.726;2022-09-03T14:46:39;25.10;99.90
13052;DHT22;6592;47.484;9.726;2022-09-03T14:49:42;24.60;99.90
13052;DHT22;6592;47.484;9.726;2022-09-03T14:52:31;23.90;99.90
13052;DHT22;6592;47.484;9.726;2022-09-03T14:55:24;23.40;99.90
13052;DHT22;6592;47.484;9.726;2022-09-03T14:58:16;22.90;99.90
13052;DHT22;6592;47.484;9.726;2022-09-03T15:00:52;22.50;99.90
13052;DHT22;6592;47.484;9.726;2022-09-03T15:03:38;22.30;99.90
13052;DHT22;6592;47.484;9.726;2022-09-03T15:06:18;22.60;99.90
13052;DHT22;6592;47.484;9.726;2022-09-03T15:09:15;23.00;99.90
13052;DHT22;6592;47.484;9.726;2022-09-03T15:11:49;23.10;99.90
13052;DHT22;6592;47.484;9.726;2022-09-03T15:14:23;23.20;99.90
13052;DHT22;6592;47.484;9.726;2022-09-03T15:16:59;23.00;99.90
13052;DHT22;6592;47.484;9.726;2022-09-03T15:19:57;22.80;99.90
13052;DHT22;6592;47.484;9.726;2022-09-03T15:23:00;22.70;99.90
13052;DHT22;6592;47.484;9.726;2022-09-03T15:25:47;22.50;99.90
13052;DHT22;6592;47.484;9.726;2022-09-03T15:28:24;22.40;99.90
13052;DHT22;6592;47.484;9.726;2022-09-03T15:31:04;22.20;99.90
13052;DHT22;6592;47.484;9.726;2022-09-03T15:33:43;22.30;99.90
13052;DHT22;6592;47.484;9.726;2022-09-03T15:36:17;22.10;99.90
13052;DHT22;6592;47.484;9.726;2022-09-03T15:38:52;22.00;99.90
13052;DHT22;6592;47.484;9.726;2022-09-03T15:41:33;21.90;99.90
13052;DHT22;6592;47.484;9.726;2022-09-03T15:44:07;21.80;99.90
13052;DHT22;6592;47.484;9.726;2022-09-03T15:46:50;21.80;99.90
13052;DHT22;6592;47.484;9.726;2022-09-03T15:49:26;21.80;99.90
13052;DHT22;6592;47.484;9.726;2022-09-03T15:52:09;21.70;99.90
13052;DHT22;6592;47.484;9.726;2022-09-03T15:54:52;21.70;99.90
13052;DHT22;6592;47.484;9.726;2022-09-03T15:57:27;21.60;99.90
13052;DHT22;6592;47.484;9.726;2022-09-03T16:00:00;21.60;99.90
13052;DHT22;6592;47.484;9.726;2022-09-03T16:02:32;21.50;99.90
13052;DHT22;6592;47.484;9.726;2022-09-03T16:05:11;21.60;99.90
13052;DHT22;6592;47.484;9.726;2022-09-03T16:08:07;21.50;99.90
13052;DHT22;6592;47.484;9.726;2022-09-03T16:10:53;21.40;99.90
13052;DHT22;6592;47.484;9.726;2022-09-03T16:13:35;21.30;99.90
13052;DHT22;6592;47.484;9.726;2022-09-03T16:16:07;21.30;99.90
13052;DHT22;6592;47.484;9.726;2022-09-03T16:18:39;21.30;99.90
13052;DHT22;6592;47.484;9.726;2022-09-03T16:21:23;21.30;99.90
13052;DHT22;6592;47.484;9.726;2022-09-03T16:23:57;21.30;99.90
13052;DHT22;6592;47.484;9.726;2022-09-03T16:26:31;21.40;99.90
13052;DHT22;6592;47.484;9.726;2022-09-03T16:29:06;21.40;99.90
13052;DHT22;6592;47.484;9.726;2022-09-03T16:31:48;21.40;99.90
13052;DHT22;6592;47.484;9.726;2022-09-03T16:34:27;21.40;99.90
13052;DHT22;6592;47.484;9.726;2022-09-03T16:37:12;21.50;99.90
13052;DHT22;6592;47.484;9.726;2022-09-03T16:39:53;21.60;99.90
13052;DHT22;6592;47.484;9.726;2022-09-03T16:42:28;21.50;99.90
13052;DHT22;6592;47.484;9.726;2022-09-03T16:45:16;21.50;99.90
13052;DHT22;6592;47.484;9.726;2022-09-03T16:48:16;21.40;99.90